createdAt,value
2023-02-15T00:03:22.794Z,1.05
2023-02-15T00:07:49.259Z,1.03
2023-02-15T00:11:50.664Z,0.98
2023-02-15T00:15:52.112Z,0.98
2023-02-15T00:19:53.658Z,1.04
2023-02-15T00:23:55.002Z,1.14
2023-02-15T00:27:56.352Z,1.22
2023-02-15T00:31:57.698Z,1.33
2023-02-15T00:36:00.703Z,1.38
2023-02-15T00:40:02.528Z,1.41
2023-02-15T00:44:05.135Z,1.36
2023-02-15T00:48:32.602Z,1.26
2023-02-15T00:52:34.132Z,1.19
2023-02-15T00:56:35.773Z,1.22
2023-02-15T01:00:51.307Z,1.31
2023-02-15T01:04:52.976Z,1.41
2023-02-15T01:09:11.127Z,1.38
2023-02-15T01:13:12.426Z,1.30
2023-02-15T01:17:13.825Z,1.10
2023-02-15T01:21:21.279Z,0.98
2023-02-15T01:25:24.264Z,0.92
2023-02-15T01:29:25.690Z,0.91
2023-02-15T01:33:27.421Z,0.81
2023-02-15T01:37:31.699Z,0.79
2023-02-15T01:41:33.237Z,0.78
2023-02-15T01:45:39.357Z,0.87
2023-02-15T01:49:42.644Z,0.93
2023-02-15T01:57:53.728Z,0.96
2023-02-15T02:01:58.716Z,1.00
2023-02-15T02:06:00.504Z,1.03
2023-02-15T02:11:18.051Z,1.05
2023-02-15T02:15:24.164Z,0.88
2023-02-15T02:19:50.296Z,0.83
2023-02-15T02:24:09.365Z,0.76
2023-02-15T02:28:52.931Z,0.61
2023-02-15T02:33:35.377Z,0.52
2023-02-15T02:37:48.915Z,0.42
2023-02-15T02:42:18.106Z,0.36
2023-02-15T02:46:26.754Z,0.34
2023-02-15T02:50:30.066Z,0.27
2023-02-15T02:54:34.989Z,0.23
2023-02-15T03:18:34.130Z,0.59
2023-02-15T03:37:32.381Z,0.91
2023-02-15T03:41:57.200Z,0.83
2023-02-15T03:46:08.402Z,0.72
2023-02-15T03:55:23.992Z,0.77
2023-02-15T04:04:26.843Z,0.66
2023-02-15T04:08:46.826Z,0.58
2023-02-15T04:13:21.731Z,0.42
2023-02-15T04:17:23.167Z,0.30
2023-02-15T04:21:49.672Z,0.20
2023-02-15T04:25:51.133Z,0.11
2023-02-15T04:29:52.652Z,0.13
2023-02-15T04:43:33.814Z,0.28
2023-02-15T04:47:43.845Z,0.19
2023-02-15T04:51:45.742Z,0.13
2023-02-15T04:55:52.353Z,0.21
2023-02-15T04:59:54.142Z,0.36
2023-02-15T05:03:56.169Z,0.52
2023-02-15T05:07:58.184Z,0.63
2023-02-15T05:12:00.413Z,0.72
2023-02-15T05:16:03.444Z,0.74
2023-02-15T05:30:02.853Z,0.76
2023-02-15T05:34:49.519Z,0.53
2023-02-15T05:39:01.840Z,0.36
2023-02-15T05:43:04.256Z,0.23
2023-02-15T05:47:40.993Z,0.21
2023-02-15T05:51:43.752Z,0.16
2023-02-15T05:55:50.595Z,0.12
2023-02-15T05:59:51.909Z,0.10
2023-02-15T06:09:27.856Z,0.27
2023-02-15T06:13:31.086Z,0.38
2023-02-15T06:17:32.497Z,0.38
2023-02-15T06:21:44.341Z,0.47
2023-02-15T06:25:46.611Z,0.55
2023-02-15T06:29:48.025Z,0.66
2023-02-15T06:33:50.711Z,0.77
2023-02-15T06:37:52.119Z,0.87
2023-02-15T06:42:44.271Z,0.92
2023-02-15T06:46:45.697Z,1.00
2023-02-15T06:50:55.358Z,1.06
2023-02-15T06:54:56.818Z,1.11
2023-02-15T07:00:03.118Z,1.03
2023-02-15T07:04:04.733Z,0.91
2023-02-15T07:09:11.871Z,0.92
2023-02-15T07:13:13.241Z,0.85
2023-02-15T07:17:40.226Z,0.80
2023-02-15T07:21:41.745Z,1.00
2023-02-15T07:25:43.186Z,1.15
2023-02-15T07:29:44.721Z,1.20
2023-02-15T07:33:59.237Z,1.16
2023-02-15T07:47:41.420Z,1.56
2023-02-15T08:21:05.451Z,2.80
2023-02-15T08:29:55.597Z,3.46
2023-02-15T08:34:00.929Z,3.66
2023-02-15T08:38:03.688Z,3.84
2023-02-15T08:42:11.647Z,4.11
2023-02-15T08:46:16.613Z,4.44
2023-02-15T08:55:59.633Z,4.56
2023-02-15T09:22:07.418Z,5.31
2023-02-15T09:26:13.111Z,5.59
2023-02-15T09:30:15.177Z,5.70
2023-02-15T09:34:18.790Z,5.97
2023-02-15T09:38:20.549Z,6.16
2023-02-15T09:47:57.581Z,6.32
2023-02-15T09:52:08.041Z,6.55
2023-02-15T09:57:16.294Z,6.63
2023-02-15T10:01:55.718Z,6.66
2023-02-15T10:06:32.770Z,6.82
2023-02-15T10:25:13.130Z,7.20
2023-02-15T10:30:21.236Z,7.34
2023-02-15T11:14:48.343Z,7.85
2023-02-15T11:19:09.547Z,8.00
2023-02-15T11:23:16.729Z,7.94
2023-02-15T11:27:26.759Z,7.98
2023-02-15T11:31:48.499Z,8.14
2023-02-15T11:45:35.823Z,8.38
2023-02-15T11:49:41.962Z,8.48
2023-02-15T11:53:46.079Z,8.59
2023-02-15T11:58:41.473Z,8.62
2023-02-15T12:02:55.903Z,8.65
2023-02-15T12:07:22.862Z,8.75
2023-02-15T12:11:32.420Z,8.88
2023-02-15T12:15:36.853Z,8.83
2023-02-15T12:19:40.849Z,8.93
2023-02-15T12:24:39.954Z,8.80
2023-02-15T12:28:44.766Z,8.95
2023-02-15T12:33:00.096Z,9.03
2023-02-15T12:37:09.717Z,9.15
2023-02-15T12:41:26.210Z,9.17
2023-02-15T12:45:30.441Z,9.25
2023-02-15T12:49:38.985Z,9.36
2023-02-15T12:53:43.523Z,9.46
2023-02-15T12:58:22.518Z,9.43
2023-02-15T13:02:28.759Z,9.48
2023-02-15T13:06:32.003Z,9.51
2023-02-15T13:16:38.435Z,9.52
2023-02-15T13:20:42.164Z,9.54
2023-02-15T13:25:26.220Z,9.56
2023-02-15T13:29:36.176Z,9.58
2023-02-15T13:33:38.705Z,9.61
2023-02-15T13:38:02.126Z,9.69
2023-02-15T14:09:36.254Z,9.79
2023-02-15T14:28:47.122Z,9.97
2023-02-15T14:32:53.354Z,9.99
2023-02-15T14:36:56.502Z,9.91
2023-02-15T14:46:36.370Z,9.91
2023-02-15T14:51:08.340Z,9.93
2023-02-15T14:55:10.654Z,9.90
2023-02-15T14:59:39.223Z,9.88
2023-02-15T15:03:56.742Z,9.86
2023-02-15T15:08:00.938Z,9.88
2023-02-15T15:12:37.229Z,9.79
2023-02-15T15:16:38.543Z,9.72
2023-02-15T15:20:54.864Z,9.63
2023-02-15T15:25:23.758Z,9.55
2023-02-15T15:29:41.133Z,9.51
2023-02-15T15:34:10.184Z,9.45
2023-02-15T15:38:32.349Z,9.36
2023-02-15T15:42:42.992Z,9.25
2023-02-15T15:47:25.939Z,9.13
2023-02-15T15:51:31.832Z,9.01
2023-02-15T15:55:35.012Z,8.94
2023-02-15T15:59:36.489Z,8.84
2023-02-15T16:03:37.924Z,8.74
2023-02-15T16:07:41.660Z,8.63
2023-02-15T16:12:14.362Z,8.52
2023-02-15T16:16:22.798Z,8.40
2023-02-15T16:20:57.722Z,8.33
2023-02-15T16:25:05.485Z,8.19
2023-02-15T16:29:18.128Z,8.05
2023-02-15T16:33:20.462Z,7.95
2023-02-15T16:37:26.386Z,7.82
2023-02-15T16:47:41.540Z,7.51
2023-02-15T16:51:47.471Z,7.34
2023-02-15T16:55:53.427Z,7.23
2023-02-15T17:00:01.405Z,7.12
2023-02-15T17:04:30.521Z,6.90
2023-02-15T17:08:33.167Z,6.51
2023-02-15T17:12:45.405Z,6.16
2023-02-15T17:22:07.361Z,5.58
2023-02-15T17:26:25.098Z,5.42
2023-02-15T17:30:38.176Z,5.23
2023-02-15T17:35:25.051Z,5.06
2023-02-15T17:39:26.461Z,4.98
2023-02-15T17:43:27.932Z,4.86
2023-02-15T17:47:30.817Z,4.70
2023-02-15T17:51:35.333Z,4.54
2023-02-15T17:55:44.459Z,4.41
2023-02-15T18:00:04.600Z,4.14
2023-02-15T18:04:31.788Z,3.94
2023-02-15T18:08:51.892Z,3.81
2023-02-15T18:12:53.282Z,3.72
2023-02-15T18:16:55.110Z,3.67
2023-02-15T18:20:56.577Z,3.63
2023-02-15T18:24:58.772Z,3.59
2023-02-15T18:29:02.736Z,3.60
2023-02-15T18:33:04.177Z,3.66
2023-02-15T18:37:10.590Z,3.55
2023-02-15T18:41:18.196Z,3.54
2023-02-15T18:45:53.335Z,3.58
2023-02-15T18:49:54.754Z,3.59
2023-02-15T18:53:56.891Z,3.59
2023-02-15T18:57:58.936Z,3.50
2023-02-15T19:02:50.543Z,3.41
2023-02-15T19:06:53.651Z,3.37
2023-02-15T19:10:55.505Z,3.31
2023-02-15T19:14:56.939Z,3.35
2023-02-15T19:19:07.467Z,3.38
2023-02-15T19:23:33.114Z,3.41
2023-02-15T19:27:35.286Z,3.42
2023-02-15T19:31:36.786Z,3.47
2023-02-15T19:35:44.011Z,3.51
2023-02-15T19:39:45.473Z,3.52
2023-02-15T19:43:52.630Z,3.50
2023-02-15T19:47:54.571Z,3.49
2023-02-15T19:51:59.231Z,3.54
2023-02-15T19:56:00.877Z,3.57
2023-02-15T20:00:22.129Z,3.59
2023-02-15T20:04:25.305Z,3.50
2023-02-15T20:08:28.881Z,3.41
2023-02-15T20:12:30.399Z,3.35
2023-02-15T20:17:00.157Z,3.35
2023-02-15T20:21:03.084Z,3.33
2023-02-15T20:25:05.347Z,3.30
2023-02-15T20:29:12.311Z,3.29
2023-02-15T20:33:15.257Z,3.28
2023-02-15T20:38:22.471Z,3.35
2023-02-15T20:42:23.871Z,3.40
2023-02-15T20:46:25.595Z,3.37
2023-02-15T20:50:53.652Z,3.36
2023-02-15T20:54:55.151Z,3.30
2023-02-15T20:58:56.572Z,3.23
2023-02-15T21:03:00.335Z,3.13
2023-02-15T21:07:30.357Z,3.11
2023-02-15T21:11:31.779Z,3.13
2023-02-15T21:15:35.976Z,3.17
2023-02-15T21:19:40.690Z,3.12
2023-02-15T21:23:51.087Z,3.12
2023-02-15T21:27:53.030Z,3.11
2023-02-15T21:32:26.756Z,3.12
2023-02-15T21:36:28.268Z,3.18
2023-02-15T21:40:31.650Z,3.23
2023-02-15T21:44:53.906Z,3.27
2023-02-15T21:48:55.387Z,3.29
2023-02-15T21:53:34.382Z,3.27
2023-02-15T21:57:35.778Z,3.28
2023-02-15T22:01:47.059Z,3.26
2023-02-15T22:05:48.496Z,3.25
2023-02-15T22:09:49.965Z,3.26
2023-02-15T22:13:51.417Z,3.25
2023-02-15T22:17:57.059Z,3.19
2023-02-15T22:21:58.390Z,3.13
2023-02-15T22:26:27.302Z,3.07
2023-02-15T22:30:33.178Z,3.05
2023-02-15T22:34:34.652Z,3.00
2023-02-15T22:39:02.020Z,2.98
2023-02-15T22:43:05.022Z,2.92
2023-02-15T22:47:20.234Z,2.82
2023-02-15T22:51:23.921Z,2.68
2023-02-15T22:55:32.999Z,2.45
2023-02-15T22:59:34.458Z,2.23
2023-02-15T23:03:36.975Z,2.13
2023-02-15T23:07:38.379Z,2.13
2023-02-15T23:11:46.437Z,2.12
2023-02-15T23:16:12.061Z,2.11
2023-02-15T23:20:14.577Z,2.05
2023-02-15T23:24:42.869Z,2.00
2023-02-15T23:28:45.121Z,2.01
2023-02-15T23:33:58.991Z,2.07
2023-02-15T23:38:00.408Z,2.07
2023-02-15T23:42:25.091Z,2.11
2023-02-15T23:46:44.902Z,2.25
2023-02-15T23:50:46.351Z,2.36
2023-02-15T23:55:15.122Z,2.38
2023-02-15T23:59:20.653Z,2.34
